Terminal Aerodrome Forecast
Issued by NWS

Home | Current Version | Previous Version | Text Only | Print | Product List | Glossary On
Versions: 1 2 3 4 5 6 7 8 9 10 11 12
674
FTPA31 PHFO 181734
TAFHTO
TAF
PHTO 181734Z 1818/1918 24005KT P6SM SCT200
     FM182000 01010KT P6SM SCT025 SCT050
     FM190500 30005KT P6SM SCT025 SCT050
     FM191000 26005KT P6SM FEW025=

USA.gov is the U.S. government's official web portal to all federal, state and local government web resources and services.